Time;durP1;ratioP1;P1;durP2;ratioP2;P2;SDS_P1;SDS_P2;PMS_P1;PMS_P2;Temp;Humidity;BMP_temperature;BMP_pressure;BME280_temperature;BME280_humidity;BME280_pressure;Samples;Min_cycle;Max_cycle;Signal;HPM_P1;HPM_P2
2023/12/19 00:01:48;;;;;;;37.30;19.70;;;;;;;2.87;71.26;99883.86;105471;1257;97967;-73
2023/12/19 00:04:15;;;;;;;40.30;21.30;;;;;;;2.89;71.42;99878.90;105584;1256;97625;-74
2023/12/19 00:06:42;;;;;;;38.50;21.40;;;;;;;2.90;71.49;99881.52;105331;1268;97229;-74
2023/12/19 00:09:08;;;;;;;38.00;20.30;;;;;;;2.91;71.36;99887.80;105233;1253;96595;-74
2023/12/19 00:11:35;;;;;;;41.40;22.00;;;;;;;2.92;71.41;99886.88;105523;1253;97035;-74
2023/12/19 00:14:02;;;;;;;38.20;19.40;;;;;;;2.92;71.43;99891.60;105333;1259;96540;-74
2023/12/19 00:16:28;;;;;;;37.40;18.80;;;;;;;2.94;71.29;99892.08;105433;1255;96681;-75
2023/12/19 00:18:55;;;;;;;37.10;19.60;;;;;;;2.97;71.34;99894.44;105526;1258;97138;-74
2023/12/19 00:21:22;;;;;;;35.90;18.80;;;;;;;2.99;71.48;99891.26;105743;1253;107575;-74
2023/12/19 00:23:50;;;;;;;34.80;18.10;;;;;;;3.01;71.60;99887.55;105670;1256;96616;-76
2023/12/19 00:26:16;;;;;;;36.50;19.40;;;;;;;3.00;71.40;99879.67;105673;1256;96630;-74
2023/12/19 00:28:44;;;;;;;36.90;19.80;;;;;;;2.96;71.28;99873.45;105685;1255;96607;-74
2023/12/19 00:31:19;;;;;;;35.10;18.40;;;;;;;2.96;71.56;99868.56;105394;1256;96700;-75
2023/12/19 00:33:46;;;;;;;37.30;20.20;;;;;;;2.96;71.58;99860.67;105662;1256;107240;-74
2023/12/19 00:36:20;;;;;;;36.20;19.20;;;;;;;2.93;71.24;99860.76;105570;1255;96608;-75
2023/12/19 00:38:47;;;;;;;;;;;;;;;2.91;71.16;99861.34;105785;1254;96596;-73
2023/12/19 00:41:15;;;;;;;39.20;19.60;;;;;;;2.87;71.29;99852.15;105758;1253;96620;-73
2023/12/19 00:43:43;;;;;;;38.20;19.60;;;;;;;2.84;71.14;99842.25;105551;1253;96604;-76
2023/12/19 00:46:09;;;;;;;38.90;21.10;;;;;;;2.77;71.41;99840.70;105496;1269;108042;-75
2023/12/19 00:48:36;;;;;;;41.20;20.50;;;;;;;2.73;71.40;99839.60;105398;1253;96584;-75
2023/12/19 00:51:09;;;;;;;37.00;19.90;;;;;;;2.68;71.53;99840.61;105841;1257;96636;-74
2023/12/19 00:53:37;;;;;;;39.70;20.60;;;;;;;2.61;71.44;99844.13;105339;1256;108861;-74
2023/12/19 00:56:10;;;;;;;39.90;20.50;;;;;;;2.55;71.39;99840.42;105535;1256;96596;-73
2023/12/19 00:58:37;;;;;;;36.50;19.90;;;;;;;2.52;71.59;99844.20;105441;1258;107204;-75
2023/12/19 01:01:05;;;;;;;35.50;19.40;;;;;;;2.50;71.36;99846.86;105488;1255;96624;-74
2023/12/19 01:03:33;;;;;;;34.90;19.20;;;;;;;2.50;71.28;99848.10;105517;1253;96672;-75
2023/12/19 01:06:02;;;;;;;39.10;20.70;;;;;;;2.49;71.56;99846.73;105247;1253;109860;-74
2023/12/19 01:08:29;;;;;;;38.10;19.50;;;;;;;2.48;71.36;99846.21;105567;1257;96686;-75
2023/12/19 01:10:55;;;;;;;35.80;18.30;;;;;;;2.49;71.40;99851.45;105584;1256;96640;-75
2023/12/19 01:13:22;;;;;;;38.50;19.90;;;;;;;2.49;71.40;99852.14;105703;1253;96596;-73
2023/12/19 01:15:50;;;;;;;40.30;20.80;;;;;;;2.48;71.07;99845.33;105561;1253;96975;-75
2023/12/19 01:18:17;;;;;;;36.10;18.60;;;;;;;2.49;71.14;99837.98;105588;1258;96680;-75
2023/12/19 01:20:44;;;;;;;40.80;20.10;;;;;;;2.50;71.52;99828.67;105512;1254;96645;-75
2023/12/19 01:23:11;;;;;;;35.30;18.80;;;;;;;2.47;71.34;99824.88;105450;1254;97001;-76
2023/12/19 01:25:40;;;;;;;39.20;19.60;;;;;;;2.47;71.34;99830.48;105805;1253;96578;-76
2023/12/19 01:28:11;;;;;;;38.50;18.90;;;;;;;2.46;71.23;99831.39;105565;1255;96591;-75
2023/12/19 01:30:40;;;;;;;36.40;17.90;;;;;;;2.45;71.19;99827.59;105512;1258;111055;-74
2023/12/19 01:33:08;;;;;;;36.60;19.10;;;;;;;2.44;71.65;99828.32;105494;1255;97130;-74
2023/12/19 01:35:36;;;;;;;36.60;19.40;;;;;;;2.42;71.60;99822.95;105450;1253;106643;-74
2023/12/19 01:38:03;;;;;;;36.80;20.30;;;;;;;2.41;71.13;99829.61;105457;1259;97960;-77
2023/12/19 01:40:31;;;;;;;33.00;17.30;;;;;;;2.41;71.45;99832.41;105355;1257;98079;-75
2023/12/19 01:42:59;;;;;;;35.40;18.50;;;;;;;2.43;71.26;99830.27;105559;1254;109967;-75
2023/12/19 01:45:27;;;;;;;36.50;18.10;;;;;;;2.43;71.45;99833.42;105595;1255;97274;-75
2023/12/19 01:47:54;;;;;;;38.20;18.40;;;;;;;2.42;71.33;99828.88;106632;1256;108192;-75
2023/12/19 01:50:21;;;;;;;38.00;21.60;;;;;;;2.41;71.50;99827.34;105331;1253;96688;-76
2023/12/19 01:52:52;;;;;;;35.30;17.60;;;;;;;2.42;71.35;99828.19;105742;1256;96574;-73
2023/12/19 01:55:23;;;;;;;;;;;;;;;2.42;71.34;99826.42;105626;1253;109148;-75
2023/12/19 01:57:49;;;;;;;36.60;18.80;;;;;;;2.41;71.36;99816.66;105565;1255;96604;-76
2023/12/19 02:00:19;;;;;;;36.60;18.00;;;;;;;2.43;71.34;99807.69;105559;1253;96697;-75
2023/12/19 02:02:47;;;;;;;35.90;20.20;;;;;;;2.45;71.30;99805.17;105795;1255;97935;-76
2023/12/19 02:05:14;;;;;;;33.90;17.00;;;;;;;2.47;71.33;99801.06;105815;1253;97934;-75
2023/12/19 02:07:42;;;;;;;39.90;18.00;;;;;;;2.49;71.56;99792.27;105586;1254;96617;-74
2023/12/19 02:10:10;;;;;;;36.80;19.60;;;;;;;2.50;71.48;99790.48;106320;1255;96620;-75
2023/12/19 02:12:37;;;;;;;36.50;18.20;;;;;;;2.49;71.54;99793.48;105261;1259;97532;-75
2023/12/19 02:15:05;;;;;;;38.30;20.30;;;;;;;2.50;71.52;99799.94;106725;1255;96622;-74
2023/12/19 02:17:31;;;;;;;38.90;19.90;;;;;;;2.51;71.78;99804.14;105473;1255;96545;-75
2023/12/19 02:19:59;;;;;;;37.20;19.20;;;;;;;2.49;71.62;99793.46;105637;1256;96680;-74
2023/12/19 02:22:29;;;;;;;39.90;21.20;;;;;;;2.48;71.34;99790.89;105657;1254;96616;-74
2023/12/19 02:24:57;;;;;;;39.70;19.80;;;;;;;2.43;71.24;99783.15;105416;1269;107543;-75
2023/12/19 02:27:24;;;;;;;37.90;19.70;;;;;;;2.40;71.32;99766.81;105454;1253;96695;-74
2023/12/19 02:29:51;;;;;;;37.70;19.00;;;;;;;2.36;71.47;99753.93;105677;1253;96613;-74
2023/12/19 02:32:17;;;;;;;41.40;20.50;;;;;;;2.34;71.48;99757.15;105723;1256;96708;-75
2023/12/19 02:34:45;;;;;;;39.80;20.30;;;;;;;2.29;71.49;99743.98;105636;1253;96616;-75
2023/12/19 02:37:13;;;;;;;41.50;20.10;;;;;;;2.22;71.81;99743.66;105773;1253;107335;-75
2023/12/19 02:39:40;;;;;;;40.70;21.80;;;;;;;2.17;71.58;99735.57;105973;1252;97192;-75
2023/12/19 02:42:06;;;;;;;42.70;21.50;;;;;;;2.12;71.58;99732.19;105834;1256;96645;-74
2023/12/19 02:44:33;;;;;;;40.30;20.60;;;;;;;2.10;71.54;99736.10;105506;1255;97525;-74
2023/12/19 02:46:59;;;;;;;41.00;21.60;;;;;;;2.09;71.78;99727.36;105750;1256;97624;-75
2023/12/19 02:49:26;;;;;;;38.90;19.40;;;;;;;2.06;71.78;99727.80;105879;1255;96537;-76
2023/12/19 02:51:54;;;;;;;39.60;19.60;;;;;;;2.05;71.92;99720.83;105815;1256;96399;-74
2023/12/19 02:54:23;;;;;;;41.40;20.80;;;;;;;2.06;72.15;99719.42;105843;1255;97207;-74
2023/12/19 02:56:50;;;;;;;42.20;21.00;;;;;;;2.05;72.56;99711.91;105818;1256;97960;-75
2023/12/19 02:59:16;;;;;;;41.90;21.20;;;;;;;2.03;72.20;99712.48;105323;1256;97573;-75
2023/12/19 03:01:47;;;;;;;38.30;20.30;;;;;;;2.01;72.06;99699.96;105858;1253;96684;-74
2023/12/19 03:04:14;;;;;;;38.10;19.70;;;;;;;1.99;72.11;99705.07;105690;1255;96577;-74
2023/12/19 03:06:41;;;;;;;41.00;20.30;;;;;;;1.97;71.94;99709.69;105743;1255;97458;-75
2023/12/19 03:09:07;;;;;;;39.40;19.80;;;;;;;1.97;72.24;99712.31;105458;1253;96606;-76
2023/12/19 03:11:38;;;;;;;36.50;19.60;;;;;;;1.94;72.23;99705.38;105641;1253;97234;-76
2023/12/19 03:14:05;;;;;;;39.70;19.70;;;;;;;1.94;72.26;99702.42;105733;1254;96742;-75
2023/12/19 03:16:32;;;;;;;35.60;19.20;;;;;;;1.91;71.91;99713.52;105582;1254;97953;-75
2023/12/19 03:18:59;;;;;;;40.20;20.20;;;;;;;1.90;72.26;99716.15;105748;1256;96588;-76
2023/12/19 03:21:25;;;;;;;38.50;18.80;;;;;;;1.90;71.99;99718.27;105869;1253;96665;-75
2023/12/19 03:23:52;;;;;;;38.70;19.20;;;;;;;1.88;71.97;99713.92;105310;1268;96681;-75
2023/12/19 03:26:19;;;;;;;42.80;21.90;;;;;;;1.86;72.35;99712.41;105431;1256;97224;-74
2023/12/19 03:28:45;;;;;;;38.70;20.20;;;;;;;1.86;72.15;99701.94;105496;1253;110031;-75
2023/12/19 03:31:12;;;;;;;42.10;20.10;;;;;;;1.82;72.43;99702.73;105796;1256;97535;-76
2023/12/19 03:33:40;;;;;;;38.30;18.70;;;;;;;1.80;72.35;99695.27;105426;1255;97440;-75
2023/12/19 03:36:07;;;;;;;38.40;19.80;;;;;;;1.80;72.19;99686.19;105671;1255;96579;-75
2023/12/19 03:38:35;;;;;;;40.90;20.20;;;;;;;1.80;72.38;99682.34;105416;1268;97520;-76
2023/12/19 03:41:02;;;;;;;38.00;19.00;;;;;;;1.78;72.27;99679.23;105712;1253;96690;-75
2023/12/19 03:43:28;;;;;;;44.20;19.60;;;;;;;1.79;72.57;99666.44;105694;1255;96751;-74
2023/12/19 03:46:00;;;;;;;39.70;19.60;;;;;;;1.78;72.78;99658.24;105481;1256;97262;-75
2023/12/19 03:48:27;;;;;;;39.50;19.30;;;;;;;1.79;72.69;99653.84;105590;1256;97937;-76
2023/12/19 03:50:54;;;;;;;37.80;20.20;;;;;;;1.82;72.47;99656.91;105279;1253;97001;-76
2023/12/19 03:53:21;;;;;;;36.40;18.20;;;;;;;1.85;72.58;99664.00;105626;1253;96559;-74
2023/12/19 03:55:48;;;;;;;40.50;19.60;;;;;;;1.87;72.48;99666.55;105492;1256;96628;-74
2023/12/19 03:58:16;;;;;;;39.20;18.80;;;;;;;1.91;72.46;99658.06;105423;1258;96690;-74
2023/12/19 04:00:42;;;;;;;40.20;18.40;;;;;;;1.94;72.61;99675.83;105644;1256;96539;-74
2023/12/19 04:03:09;;;;;;;38.30;18.50;;;;;;;1.98;72.99;99678.00;105340;1254;96594;-75
2023/12/19 04:05:35;;;;;;;40.00;19.90;;;;;;;2.02;72.50;99681.75;105535;1255;96637;-75
2023/12/19 04:08:02;;;;;;;40.10;20.90;;;;;;;2.05;72.41;99684.80;105517;1259;96617;-76
2023/12/19 04:10:29;;;;;;;40.20;19.40;;;;;;;2.06;72.55;99685.80;105638;1266;96612;-76
2023/12/19 04:12:55;;;;;;;37.30;18.90;;;;;;;2.10;72.24;99697.45;105827;1253;96713;-75
2023/12/19 04:15:23;;;;;;;41.60;20.40;;;;;;;2.13;72.15;99713.28;105634;1255;96675;-75
2023/12/19 04:17:50;;;;;;;40.00;19.20;;;;;;;2.16;72.31;99716.18;105270;1263;96583;-75
2023/12/19 04:20:17;;;;;;;41.10;19.70;;;;;;;2.19;72.42;99694.54;105669;1264;96610;-75
2023/12/19 04:22:43;;;;;;;41.90;19.70;;;;;;;2.21;72.43;99695.20;105633;1257;96736;-75
2023/12/19 04:25:11;;;;;;;38.20;19.00;;;;;;;2.24;72.34;99690.58;105668;1256;108783;-74
2023/12/19 04:27:37;;;;;;;39.90;21.00;;;;;;;2.27;72.49;99698.53;105241;1259;96699;-74
2023/12/19 04:30:05;;;;;;;40.00;19.70;;;;;;;2.30;72.41;99702.48;105191;1254;96591;-75
2023/12/19 04:32:35;;;;;;;39.50;19.90;;;;;;;2.32;72.19;99695.26;105410;1254;97033;-76
2023/12/19 04:35:03;;;;;;;36.20;17.10;;;;;;;2.34;72.30;99694.84;105204;1257;96598;-75
2023/12/19 04:37:30;;;;;;;38.50;18.70;;;;;;;2.35;72.05;99691.30;105795;1253;110182;-74
2023/12/19 04:39:57;;;;;;;35.90;19.00;;;;;;;2.36;72.00;99692.85;105758;1258;97238;-74
2023/12/19 04:42:24;;;;;;;36.70;17.20;;;;;;;2.38;72.29;99686.84;105548;1257;96623;-75
2023/12/19 04:44:51;;;;;;;42.80;18.50;;;;;;;2.39;72.24;99681.75;105743;1256;96665;-73
2023/12/19 04:47:17;;;;;;;38.20;19.70;;;;;;;2.39;71.81;99675.27;105521;1253;97922;-74
2023/12/19 04:49:45;;;;;;;39.10;18.50;;;;;;;2.40;72.28;99673.48;105928;1256;97170;-75
2023/12/19 04:52:12;;;;;;;39.30;20.70;;;;;;;2.42;72.14;99674.48;105689;1267;107215;-76
2023/12/19 04:54:38;;;;;;;37.80;19.40;;;;;;;2.44;72.20;99676.71;105543;1260;96616;-75
2023/12/19 04:57:06;;;;;;;38.30;19.40;;;;;;;2.46;72.24;99674.91;105521;1255;96699;-74
2023/12/19 04:59:33;;;;;;;41.90;20.20;;;;;;;2.47;72.31;99666.46;105321;1265;97547;-75
2023/12/19 05:01:59;;;;;;;39.30;20.30;;;;;;;2.47;72.31;99659.63;105534;1265;96613;-74
2023/12/19 05:04:26;;;;;;;39.80;19.40;;;;;;;2.46;72.08;99647.23;105558;1257;96601;-76
2023/12/19 05:06:53;;;;;;;37.20;17.80;;;;;;;2.44;72.03;99649.93;105481;1257;96703;-75
2023/12/19 05:09:20;;;;;;;41.80;21.10;;;;;;;2.43;72.00;99647.50;105646;1255;97547;-75
2023/12/19 05:11:47;;;;;;;40.70;19.30;;;;;;;2.41;72.25;99642.66;105759;1255;96623;-74
2023/12/19 05:14:13;;;;;;;39.90;19.90;;;;;;;2.38;72.08;99647.28;105695;1266;96760;-76
2023/12/19 05:16:40;;;;;;;42.30;20.90;;;;;;;2.36;72.24;99642.61;105772;1256;96608;-75
2023/12/19 05:19:06;;;;;;;42.20;20.30;;;;;;;2.35;72.28;99641.75;105559;1255;109348;-74
2023/12/19 05:21:37;;;;;;;43.00;21.00;;;;;;;2.33;72.18;99644.63;106342;1255;97945;-75
2023/12/19 05:24:05;;;;;;;42.10;21.00;;;;;;;2.32;72.12;99641.16;105765;1255;105460;-74
2023/12/19 05:26:32;;;;;;;41.10;21.00;;;;;;;2.31;72.29;99636.46;105731;1257;96621;-73
2023/12/19 05:28:59;;;;;;;37.70;19.40;;;;;;;2.30;72.20;99642.08;105844;1253;96543;-74
2023/12/19 05:31:25;;;;;;;40.00;19.40;;;;;;;2.30;72.36;99650.48;105690;1257;98009;-73
2023/12/19 05:33:52;;;;;;;38.70;19.60;;;;;;;2.31;72.09;99657.10;105591;1255;97939;-74
2023/12/19 05:36:19;;;;;;;36.40;17.70;;;;;;;2.34;72.16;99661.59;105714;1254;96669;-74
2023/12/19 05:38:45;;;;;;;39.00;19.20;;;;;;;2.36;72.52;99662.39;105514;1259;96691;-74
2023/12/19 05:41:14;;;;;;;35.20;18.10;;;;;;;2.40;72.19;99666.32;105422;1257;109068;-75
2023/12/19 05:43:41;;;;;;;39.00;19.50;;;;;;;2.44;72.23;99663.04;106802;1255;97522;-74
2023/12/19 05:46:08;;;;;;;36.80;18.20;;;;;;;2.46;72.24;99661.39;105413;1254;96683;-74
2023/12/19 05:48:39;;;;;;;37.00;18.50;;;;;;;2.50;71.99;99664.06;105747;1256;97424;-73
2023/12/19 05:51:07;;;;;;;37.80;19.30;;;;;;;2.55;72.03;99662.55;105553;1255;96661;-76
2023/12/19 05:53:33;;;;;;;34.40;17.80;;;;;;;2.58;72.28;99661.41;105694;1256;96598;-74
2023/12/19 05:56:00;;;;;;;37.00;19.00;;;;;;;2.61;72.08;99662.02;105555;1255;96715;-73
2023/12/19 05:58:26;;;;;;;41.00;20.10;;;;;;;2.62;72.21;99655.51;105522;1267;96614;-74
2023/12/19 06:00:55;;;;;;;39.30;19.10;;;;;;;2.63;72.06;99646.54;105527;1256;96601;-75
2023/12/19 06:03:23;;;;;;;39.50;19.00;;;;;;;2.64;72.28;99628.65;105749;1256;109968;-73
2023/12/19 06:05:50;;;;;;;40.10;19.80;;;;;;;2.66;72.26;99634.54;105989;1257;96702;-73
2023/12/19 06:08:17;;;;;;;41.80;20.00;;;;;;;2.67;72.18;99628.38;105531;1257;98198;-73
2023/12/19 06:10:44;;;;;;;39.40;18.40;;;;;;;2.67;72.13;99635.91;105775;1257;97935;-72
2023/12/19 06:13:11;;;;;;;36.00;17.20;;;;;;;2.68;72.23;99648.49;106000;1254;96603;-74
2023/12/19 06:15:38;;;;;;;35.70;17.70;;;;;;;2.70;72.48;99651.42;105838;1257;98034;-72
2023/12/19 06:18:05;;;;;;;36.20;18.80;;;;;;;2.71;72.27;99649.10;105771;1257;96603;-72
2023/12/19 06:20:31;;;;;;;34.70;17.40;;;;;;;2.74;72.36;99640.61;105314;1267;96660;-73
2023/12/19 06:22:58;;;;;;;40.40;19.10;;;;;;;2.76;72.39;99639.48;105488;1254;96675;-74
2023/12/19 06:25:25;;;;;;;35.40;16.90;;;;;;;2.78;72.08;99643.64;108637;1253;110425;-73
2023/12/19 06:27:52;;;;;;;35.60;18.00;;;;;;;2.81;72.13;99643.73;107454;1256;97566;-75
2023/12/19 06:30:19;;;;;;;36.20;18.00;;;;;;;2.82;72.11;99641.94;105564;1266;96695;-74
2023/12/19 06:32:56;;;;;;;35.50;18.10;;;;;;;2.82;72.15;99640.70;105341;1253;97522;-74
2023/12/19 06:35:23;;;;;;;37.20;19.10;;;;;;;2.82;72.19;99639.30;105441;1256;96513;-75
2023/12/19 06:37:50;;;;;;;36.00;18.70;;;;;;;2.82;72.12;99636.51;105473;1255;96786;-71
2023/12/19 06:40:17;;;;;;;37.50;17.40;;;;;;;2.82;71.92;99648.77;105677;1256;97250;-73
2023/12/19 06:42:44;;;;;;;37.40;18.50;;;;;;;2.83;72.25;99665.02;105658;1258;96665;-75
2023/12/19 06:45:12;;;;;;;35.60;18.40;;;;;;;2.84;72.29;99673.40;105607;1256;96581;-73
2023/12/19 06:47:40;;;;;;;36.50;18.40;;;;;;;2.84;71.85;99668.14;105839;1258;96516;-74
2023/12/19 06:50:08;;;;;;;36.10;18.20;;;;;;;2.80;71.82;99676.14;105437;1258;96566;-75
2023/12/19 06:52:46;;;;;;;36.80;18.40;;;;;;;2.80;72.12;99681.94;105414;1256;96573;-74
2023/12/19 06:55:13;;;;;;;38.00;19.00;;;;;;;2.80;71.79;99678.08;105470;1256;107543;-72
2023/12/19 06:57:40;;;;;;;43.40;21.50;;;;;;;2.80;72.05;99675.63;105671;1267;97533;-74
2023/12/19 07:00:07;;;;;;;37.30;17.60;;;;;;;2.81;72.16;99686.45;105800;1267;97530;-74
2023/12/19 07:02:35;;;;;;;39.60;19.60;;;;;;;2.82;71.74;99681.17;105487;1266;98243;-73
2023/12/19 07:05:03;;;;;;;40.40;19.80;;;;;;;2.83;72.06;99682.90;105611;1257;96606;-73
2023/12/19 07:07:29;;;;;;;37.60;17.90;;;;;;;2.87;72.25;99680.67;105593;1266;97874;-73
2023/12/19 07:09:56;;;;;;;34.60;18.70;;;;;;;2.92;72.09;99668.23;105648;1267;96613;-74
2023/12/19 07:12:23;;;;;;;39.70;20.70;;;;;;;2.97;72.06;99654.76;105739;1257;96605;-74
2023/12/19 07:14:49;;;;;;;37.80;19.00;;;;;;;3.03;71.82;99644.05;105799;1266;96610;-74
2023/12/19 07:17:16;;;;;;;38.80;20.50;;;;;;;3.09;72.14;99643.17;105419;1254;106481;-73
2023/12/19 07:19:43;;;;;;;39.10;19.10;;;;;;;3.15;72.09;99637.74;105701;1270;96602;-73
2023/12/19 07:22:10;;;;;;;36.70;19.30;;;;;;;3.21;71.79;99631.91;105409;1264;96716;-75
2023/12/19 07:24:37;;;;;;;37.60;18.40;;;;;;;3.27;72.02;99630.14;105408;1257;96680;-75
2023/12/19 07:27:04;;;;;;;38.30;19.30;;;;;;;3.34;71.92;99624.48;105352;1257;96614;-75
2023/12/19 07:29:31;;;;;;;40.30;19.90;;;;;;;3.40;71.43;99619.71;105429;1266;97293;-73
2023/12/19 07:31:58;;;;;;;36.30;19.60;;;;;;;3.45;71.71;99622.19;105370;1256;96679;-74
2023/12/19 07:34:24;;;;;;;40.30;21.00;;;;;;;3.49;71.92;99622.90;105564;1257;96596;-73
2023/12/19 07:36:51;;;;;;;39.50;20.70;;;;;;;3.54;71.58;99618.71;105078;1259;96597;-74
2023/12/19 07:39:18;;;;;;;42.10;21.30;;;;;;;3.57;71.51;99608.05;105371;1255;96608;-74
2023/12/19 07:41:44;;;;;;;42.50;21.80;;;;;;;3.60;71.11;99603.44;105346;1266;96948;-73
2023/12/19 07:44:11;;;;;;;47.30;22.30;;;;;;;3.62;71.56;99600.19;105330;1256;97133;-73
2023/12/19 07:46:41;;;;;;;42.40;21.20;;;;;;;3.65;71.21;99592.20;105561;1254;96617;-73
2023/12/19 07:49:09;;;;;;;45.00;23.50;;;;;;;3.68;71.71;99591.88;105336;1253;106197;-73
2023/12/19 07:51:36;;;;;;;41.60;21.50;;;;;;;3.73;71.63;99586.28;105127;1259;96614;-75
2023/12/19 07:54:03;;;;;;;41.00;21.50;;;;;;;3.77;71.38;99585.11;105390;1265;96721;-74
2023/12/19 07:56:29;;;;;;;43.70;22.70;;;;;;;3.79;71.75;99585.73;105152;1266;96680;-75
2023/12/19 07:58:56;;;;;;;41.20;20.60;;;;;;;3.80;71.19;99587.81;105564;1254;96615;-74
2023/12/19 08:01:22;;;;;;;42.50;22.10;;;;;;;3.81;71.63;99591.98;105147;1267;96622;-74
2023/12/19 08:03:49;;;;;;;37.50;20.60;;;;;;;3.83;71.44;99589.10;105290;1260;97204;-74
2023/12/19 08:06:16;;;;;;;42.70;24.40;;;;;;;3.84;71.37;99582.76;105399;1254;97535;-73
2023/12/19 08:08:43;;;;;;;44.10;24.50;;;;;;;3.86;71.14;99587.42;105331;1257;97424;-74
2023/12/19 08:11:12;;;;;;;43.60;22.50;;;;;;;3.87;71.25;99596.13;105415;1258;97954;-74
2023/12/19 08:13:38;;;;;;;41.80;21.60;;;;;;;3.90;71.26;99592.70;105403;1255;96682;-73
2023/12/19 08:16:05;;;;;;;41.10;22.80;;;;;;;3.91;71.11;99591.78;105278;1257;97070;-72
2023/12/19 08:18:32;;;;;;;40.30;21.70;;;;;;;3.95;71.54;99588.66;105351;1256;96543;-74
2023/12/19 08:21:02;;;;;;;42.10;21.50;;;;;;;3.99;71.48;99588.66;105420;1258;96620;-75
2023/12/19 08:23:28;;;;;;;42.50;21.70;;;;;;;4.03;71.14;99586.08;105515;1254;107192;-72
2023/12/19 08:25:55;;;;;;;43.80;22.50;;;;;;;4.07;71.47;99584.17;105318;1268;96581;-73
2023/12/19 08:28:21;;;;;;;38.60;20.20;;;;;;;4.12;71.60;99588.54;105559;1257;96603;-73
2023/12/19 08:30:48;;;;;;;39.40;19.90;;;;;;;4.18;71.54;99589.38;105495;1255;97539;-74
2023/12/19 08:33:15;;;;;;;41.30;22.00;;;;;;;4.23;70.96;99586.75;105449;1256;97916;-74
2023/12/19 08:35:41;;;;;;;39.80;20.70;;;;;;;4.25;71.01;99586.30;105367;1263;96601;-73
2023/12/19 08:38:08;;;;;;;42.10;22.60;;;;;;;4.29;71.38;99587.89;105453;1260;96597;-74
2023/12/19 08:40:34;;;;;;;40.70;22.10;;;;;;;4.33;70.96;99588.44;105299;1257;96684;-75
2023/12/19 08:43:01;;;;;;;40.30;21.10;;;;;;;4.36;70.88;99585.89;105363;1257;98044;-73
2023/12/19 08:45:28;;;;;;;39.40;20.00;;;;;;;4.41;71.29;99582.19;105490;1265;96649;-74
2023/12/19 08:47:54;;;;;;;42.00;22.20;;;;;;;4.45;71.26;99576.59;105399;1257;97194;-73
2023/12/19 08:50:21;;;;;;;47.10;23.40;;;;;;;4.49;71.19;99571.35;105141;1254;98024;-73
2023/12/19 08:52:48;;;;;;;40.80;21.60;;;;;;;4.51;71.03;99564.23;105418;1257;96620;-74
2023/12/19 08:55:15;;;;;;;46.00;23.70;;;;;;;4.53;71.10;99566.77;105437;1259;96622;-74
2023/12/19 08:57:45;;;;;;;42.20;22.30;;;;;;;4.58;70.90;99567.80;105413;1255;96565;-75
2023/12/19 09:00:18;;;;;;;42.00;22.00;;;;;;;4.62;70.83;99568.52;105368;1257;97870;-74
2023/12/19 09:02:46;;;;;;;40.80;20.80;;;;;;;4.65;71.26;99571.59;105393;1254;107970;-77
2023/12/19 09:05:16;;;;;;;40.90;21.20;;;;;;;4.70;71.22;99574.20;105402;1257;97097;-73
2023/12/19 09:07:46;;;;;;;42.80;22.60;;;;;;;4.74;71.36;99561.20;105264;1264;107584;-74
2023/12/19 09:10:14;;;;;;;40.60;22.70;;;;;;;4.77;70.90;99550.39;105362;1256;96608;-75
2023/12/19 09:12:41;;;;;;;41.50;22.30;;;;;;;4.80;71.00;99553.06;105467;1254;97592;-74
2023/12/19 09:15:11;;;;;;;41.80;22.30;;;;;;;4.82;70.96;99548.23;105363;1256;96884;-74
2023/12/19 09:17:38;;;;;;;37.80;20.20;;;;;;;4.85;71.06;99544.77;105384;1255;96596;-74
2023/12/19 09:20:07;;;;;;;41.10;21.30;;;;;;;4.88;71.10;99541.31;105255;1254;107070;-75
2023/12/19 09:22:35;;;;;;;42.60;21.20;;;;;;;4.91;70.66;99532.03;105302;1254;97523;-74
2023/12/19 09:25:02;;;;;;;41.00;20.90;;;;;;;4.95;71.18;99536.82;105165;1256;96595;-73
2023/12/19 09:27:29;;;;;;;43.10;23.50;;;;;;;4.97;70.93;99539.20;105371;1254;96648;-75
2023/12/19 09:29:55;;;;;;;44.20;23.30;;;;;;;4.98;70.65;99542.30;105404;1254;96672;-73
2023/12/19 09:32:23;;;;;;;49.40;25.40;;;;;;;5.00;70.84;99537.99;105358;1275;96605;-74
2023/12/19 09:34:49;;;;;;;45.60;24.70;;;;;;;5.03;70.20;99539.27;105516;1256;96648;-73
2023/12/19 09:37:16;;;;;;;43.10;24.70;;;;;;;5.05;70.70;99531.48;105133;1255;96635;-74
2023/12/19 09:39:46;;;;;;;48.10;25.30;;;;;;;5.08;70.82;99528.35;105479;1254;97822;-74
2023/12/19 09:42:17;;;;;;;42.90;23.40;;;;;;;5.11;70.76;99523.80;105353;1266;108700;-73
2023/12/19 09:44:44;;;;;;;42.00;21.70;;;;;;;5.13;70.55;99521.44;105317;1257;97567;-73
2023/12/19 09:47:15;;;;;;;38.60;20.70;;;;;;;5.15;70.89;99517.14;105149;1254;96620;-75
2023/12/19 09:49:43;;;;;;;40.30;22.80;;;;;;;5.17;70.59;99506.16;105363;1255;109857;-74
2023/12/19 09:52:12;;;;;;;40.00;20.30;;;;;;;5.19;70.03;99504.48;105496;1256;96674;-76
2023/12/19 09:54:40;;;;;;;38.10;20.70;;;;;;;5.21;70.45;99501.23;105510;1257;107245;-74
2023/12/19 09:57:08;;;;;;;40.00;20.90;;;;;;;5.24;70.34;99498.48;105336;1257;97925;-73
2023/12/19 09:59:36;;;;;;;40.80;22.10;;;;;;;5.26;70.73;99496.10;105352;1256;96700;-74
2023/12/19 10:02:08;;;;;;;;;;;;;;;5.29;70.04;99494.58;105196;1260;109831;-74
2023/12/19 10:04:36;;;;;;;38.00;19.90;;;;;;;5.30;70.42;99495.58;105399;1254;96594;-74
2023/12/19 10:07:03;;;;;;;34.30;18.50;;;;;;;5.32;70.82;99490.39;105368;1275;97027;-74
2023/12/19 10:09:30;;;;;;;37.90;20.70;;;;;;;5.32;70.06;99482.64;105530;1257;96649;-73
2023/12/19 10:12:06;;;;;;;38.60;21.10;;;;;;;5.31;70.12;99480.58;105216;1254;96616;-75
2023/12/19 10:14:33;;;;;;;41.10;22.30;;;;;;;5.29;69.78;99475.39;105397;1254;109901;-76
2023/12/19 10:17:05;;;;;;;40.50;20.40;;;;;;;5.29;69.91;99469.61;105311;1258;97009;-74
2023/12/19 10:19:38;;;;;;;38.10;20.10;;;;;;;5.29;69.84;99468.19;105336;1257;107632;-75
2023/12/19 10:22:06;;;;;;;36.40;20.20;;;;;;;5.31;69.86;99459.84;105284;1254;96655;-73
2023/12/19 10:24:33;;;;;;;36.50;19.40;;;;;;;5.32;70.37;99455.56;105435;1257;96709;-74
2023/12/19 10:27:03;;;;;;;37.30;21.00;;;;;;;5.34;70.49;99459.18;105496;1255;108845;-74
2023/12/19 10:29:36;;;;;;;36.70;20.60;;;;;;;5.34;70.29;99451.96;105443;1256;96673;-75
2023/12/19 10:32:19;;;;;;;36.30;20.00;;;;;;;5.36;70.61;99454.69;105348;1266;107253;-74
2023/12/19 10:34:55;;;;;;;39.10;21.50;;;;;;;5.39;70.56;99449.98;105245;1255;97914;-73
2023/12/19 10:37:26;;;;;;;42.50;23.30;;;;;;;5.42;70.17;99446.02;105157;1255;97856;-75
2023/12/19 10:40:14;;;;;;;;;;;;;;;5.42;69.30;99444.75;105395;1256;109883;-74
2023/12/19 10:42:41;;;;;;;37.40;19.80;;;;;;;5.40;69.54;99442.20;105283;1268;96654;-74
2023/12/19 10:45:07;;;;;;;39.70;22.30;;;;;;;5.42;70.16;99437.01;105228;1258;97039;-73
2023/12/19 10:47:34;;;;;;;40.10;22.30;;;;;;;5.45;70.08;99435.31;105521;1267;96566;-73
2023/12/19 10:50:01;;;;;;;37.60;20.30;;;;;;;5.48;70.34;99436.41;105623;1252;96655;-74
2023/12/19 10:52:28;;;;;;;37.70;21.50;;;;;;;5.49;70.26;99430.86;105360;1255;96870;-74
2023/12/19 10:55:08;;;;;;;35.60;21.10;;;;;;;5.50;70.15;99424.31;105563;1271;96663;-73
2023/12/19 10:57:53;;;;;;;37.80;19.80;;;;;;;5.51;69.66;99427.83;105203;1256;107326;-74
2023/12/19 11:03:41;;;;;;;34.00;19.30;;;;;;;5.52;70.24;99425.30;102518;1292;635650;-74
2023/12/19 11:06:14;;;;;;;40.80;22.00;;;;;;;5.50;69.58;99421.51;104559;1266;94348;-74
2023/12/19 11:08:47;;;;;;;36.60;20.70;;;;;;;5.50;70.06;99421.34;104493;1267;94946;-74
2023/12/19 11:11:29;;;;;;;39.00;20.90;;;;;;;5.53;70.14;99420.13;104636;1266;107262;-74
2023/12/19 11:14:01;;;;;;;40.70;22.00;;;;;;;5.56;70.18;99412.98;104382;1270;94409;-75
2023/12/19 11:16:48;;;;;;;37.20;19.80;;;;;;;5.59;70.15;99407.20;104401;1266;120616;-74
2023/12/19 11:19:30;;;;;;;37.30;20.20;;;;;;;5.60;69.95;99401.34;104846;1269;94937;-73
2023/12/19 11:22:01;;;;;;;37.60;20.30;;;;;;;5.63;69.64;99400.34;104529;1268;94385;-73
2023/12/19 11:24:41;;;;;;;39.30;20.20;;;;;;;5.67;69.90;99400.69;104567;1269;107057;-74